createdAt,value
2019-03-30T00:02:16.528Z,87.17
2019-03-30T00:04:45.582Z,87.27
2019-03-30T00:07:14.201Z,73.52
2019-03-30T00:09:42.858Z,77.80
2019-03-30T00:12:11.499Z,71.10
2019-03-30T00:14:40.174Z,69.60
2019-03-30T00:17:08.856Z,67.53
2019-03-30T00:19:37.539Z,83.85
2019-03-30T00:22:06.220Z,87.62
2019-03-30T00:24:34.928Z,89.10
2019-03-30T00:27:03.538Z,85.45
2019-03-30T00:29:32.251Z,87.00
2019-03-30T00:32:00.947Z,100.12
2019-03-30T00:34:29.553Z,87.40
2019-03-30T00:36:58.192Z,93.75
2019-03-30T00:39:26.884Z,93.87
2019-03-30T00:41:55.574Z,105.55
2019-03-30T00:44:24.183Z,103.40
2019-03-30T00:46:52.875Z,100.72
2019-03-30T00:49:21.585Z,104.70
2019-03-30T00:51:50.268Z,100.78
2019-03-30T00:54:18.938Z,101.05
2019-03-30T00:56:47.547Z,89.00
2019-03-30T00:59:16.224Z,114.88
2019-03-30T01:01:44.854Z,95.57
2019-03-30T01:04:13.532Z,98.22
2019-03-30T01:06:42.136Z,111.00
2019-03-30T01:09:10.831Z,101.67
2019-03-30T01:11:39.444Z,106.30
2019-03-30T01:14:08.161Z,104.75
2019-03-30T01:16:36.786Z,105.70
2019-03-30T01:19:05.484Z,100.97
2019-03-30T01:21:34.177Z,101.33
2019-03-30T01:24:02.860Z,105.30
2019-03-30T01:26:31.567Z,97.95
2019-03-30T01:29:00.405Z,95.22
2019-03-30T01:31:28.798Z,89.37
2019-03-30T01:33:57.475Z,87.88
2019-03-30T01:36:26.107Z,91.67
2019-03-30T01:38:54.815Z,83.75
2019-03-30T01:41:23.428Z,90.10
2019-03-30T01:43:52.021Z,84.72
2019-03-30T01:46:20.653Z,87.20
2019-03-30T01:48:49.314Z,81.35
2019-03-30T01:51:18.028Z,105.35
2019-03-30T01:53:46.634Z,82.55
2019-03-30T01:56:15.302Z,93.70
2019-03-30T01:58:43.932Z,91.45
2019-03-30T02:01:12.608Z,97.90
2019-03-30T02:03:41.240Z,93.75
2019-03-30T02:06:09.862Z,87.70
2019-03-30T02:08:38.479Z,99.85
2019-03-30T02:11:07.175Z,88.30
2019-03-30T02:13:35.777Z,90.32
2019-03-30T02:16:04.415Z,93.80
2019-03-30T02:18:33.082Z,91.05
2019-03-30T02:21:01.682Z,91.32
2019-03-30T02:23:30.314Z,92.88
2019-03-30T02:25:58.991Z,100.40
2019-03-30T02:28:27.612Z,97.42
2019-03-30T02:30:56.245Z,103.85
2019-03-30T02:33:24.924Z,94.42
2019-03-30T02:35:53.631Z,92.27
2019-03-30T02:38:22.315Z,103.80
2019-03-30T02:40:51.040Z,104.70
2019-03-30T02:43:19.739Z,104.27
2019-03-30T02:45:48.400Z,105.12
2019-03-30T02:48:17.137Z,100.30
2019-03-30T02:50:49.810Z,100.60
2019-03-30T02:53:16.427Z,88.45
2019-03-30T02:55:45.119Z,95.38
2019-03-30T02:58:13.803Z,109.22
2019-03-30T03:00:42.509Z,111.68
2019-03-30T03:03:11.199Z,92.70
2019-03-30T03:05:40.044Z,95.83
2019-03-30T03:08:08.654Z,89.20
2019-03-30T03:10:37.340Z,96.47
2019-03-30T03:13:06.062Z,100.67
2019-03-30T03:15:34.780Z,98.00
2019-03-30T03:18:03.445Z,98.58
2019-03-30T03:20:32.139Z,106.72
2019-03-30T03:23:00.809Z,115.75
2019-03-30T03:25:29.515Z,99.72
2019-03-30T03:27:58.192Z,99.10
2019-03-30T03:30:26.911Z,100.65
2019-03-30T03:32:55.619Z,102.22
2019-03-30T03:35:24.282Z,112.95
2019-03-30T03:37:52.985Z,103.65
2019-03-30T03:40:21.659Z,83.37
2019-03-30T03:42:50.476Z,95.75
2019-03-30T03:45:19.151Z,90.75
2019-03-30T03:47:47.818Z,88.58
2019-03-30T03:50:28.829Z,89.00
2019-03-30T03:52:57.739Z,93.87
2019-03-30T03:55:27.416Z,103.92
2019-03-30T03:57:56.407Z,97.92
2019-03-30T04:00:25.084Z,90.80
2019-03-30T04:02:53.783Z,90.03
2019-03-30T04:05:22.456Z,95.77
2019-03-30T04:07:51.150Z,85.53
2019-03-30T04:10:19.833Z,113.88
2019-03-30T04:12:48.458Z,104.07
2019-03-30T04:15:24.470Z,93.07
2019-03-30T04:17:53.625Z,109.60
2019-03-30T04:20:24.942Z,92.27
2019-03-30T04:22:54.401Z,101.05
2019-03-30T04:25:23.429Z,94.58
2019-03-30T04:27:52.070Z,95.45
2019-03-30T04:30:20.748Z,95.00
2019-03-30T04:32:49.431Z,85.30
2019-03-30T04:35:18.137Z,87.72
2019-03-30T04:37:46.850Z,84.20
2019-03-30T04:40:15.554Z,87.57
2019-03-30T04:42:44.259Z,102.25
2019-03-30T04:45:12.941Z,89.75
2019-03-30T04:47:41.651Z,88.47
2019-03-30T04:50:10.320Z,88.20
2019-03-30T04:52:39.035Z,101.10
2019-03-30T04:55:07.651Z,96.53
2019-03-30T04:57:36.325Z,84.75
2019-03-30T05:00:07.241Z,104.47
2019-03-30T05:02:36.223Z,106.85
2019-03-30T05:05:06.599Z,82.53
2019-03-30T05:07:35.572Z,102.05
2019-03-30T05:10:06.117Z,92.82
2019-03-30T05:12:35.109Z,89.03
2019-03-30T05:15:04.923Z,99.00
2019-03-30T05:17:46.805Z,99.87
2019-03-30T05:20:06.032Z,92.47
2019-03-30T05:22:35.000Z,80.30
2019-03-30T05:25:03.697Z,89.03
2019-03-30T05:27:32.311Z,88.90
2019-03-30T05:30:01.015Z,82.80
2019-03-30T05:32:29.621Z,80.53
2019-03-30T05:34:58.298Z,85.30
2019-03-30T05:37:26.994Z,99.13
2019-03-30T05:39:55.672Z,72.00
2019-03-30T05:42:24.360Z,89.13
2019-03-30T05:44:53.053Z,82.67
2019-03-30T05:47:21.739Z,81.87
2019-03-30T05:49:50.437Z,83.58
2019-03-30T05:52:26.244Z,142.40
2019-03-30T05:54:49.758Z,77.72
2019-03-30T05:57:18.384Z,79.40
2019-03-30T05:59:47.069Z,70.80
2019-03-30T06:02:15.776Z,80.38
2019-03-30T06:04:44.390Z,70.10
2019-03-30T06:07:13.073Z,72.42
2019-03-30T06:09:41.770Z,78.97
2019-03-30T06:12:10.447Z,68.47
2019-03-30T06:14:39.090Z,74.77
2019-03-30T06:17:07.771Z,71.60
2019-03-30T06:19:36.464Z,68.47
2019-03-30T06:22:05.163Z,70.30
2019-03-30T06:24:33.842Z,62.83
2019-03-30T06:27:02.533Z,61.40
2019-03-30T06:29:31.228Z,58.65
2019-03-30T06:31:59.928Z,73.28
2019-03-30T06:34:28.612Z,64.77
2019-03-30T06:36:57.206Z,86.85
2019-03-30T06:39:25.835Z,70.78
2019-03-30T06:41:54.500Z,72.35
2019-03-30T06:44:23.206Z,66.67
2019-03-30T06:46:51.896Z,61.80
2019-03-30T06:49:20.556Z,61.00
2019-03-30T06:51:49.180Z,55.67
2019-03-30T06:54:17.791Z,62.15
2019-03-30T06:56:46.503Z,58.42
2019-03-30T06:59:15.180Z,68.05
2019-03-30T07:01:43.782Z,60.05
2019-03-30T07:04:12.414Z,56.50
2019-03-30T07:06:41.090Z,49.98
2019-03-30T07:09:09.819Z,55.12
2019-03-30T07:11:41.884Z,53.13
2019-03-30T07:14:10.856Z,50.60
2019-03-30T07:16:39.488Z,46.08
2019-03-30T07:19:08.230Z,49.05
2019-03-30T07:21:36.840Z,49.35
2019-03-30T07:24:05.448Z,39.90
2019-03-30T07:26:34.175Z,44.85
2019-03-30T07:29:02.782Z,44.45
2019-03-30T07:31:31.378Z,42.90
2019-03-30T07:34:00.119Z,44.18
2019-03-30T07:36:28.782Z,41.45
2019-03-30T07:38:57.455Z,37.60
2019-03-30T07:41:26.125Z,41.40
2019-03-30T07:43:54.744Z,38.02
2019-03-30T07:46:23.374Z,39.95
2019-03-30T07:48:51.972Z,41.42
2019-03-30T07:51:20.616Z,66.97
2019-03-30T07:53:49.315Z,76.40
2019-03-30T07:56:17.981Z,74.80
2019-03-30T07:58:46.684Z,41.00
2019-03-30T08:01:15.350Z,37.80
2019-03-30T08:03:44.053Z,33.88
2019-03-30T08:06:12.671Z,34.23
2019-03-30T08:08:41.348Z,34.65
2019-03-30T08:11:09.963Z,34.05
2019-03-30T08:13:38.629Z,34.08
2019-03-30T08:16:07.280Z,28.80
2019-03-30T08:18:35.896Z,32.90
2019-03-30T08:21:04.568Z,36.75
2019-03-30T08:23:40.200Z,34.70
2019-03-30T08:26:03.890Z,35.70
2019-03-30T08:28:32.582Z,31.97
2019-03-30T08:31:01.174Z,38.75
2019-03-30T08:33:29.779Z,31.48
2019-03-30T08:35:58.478Z,29.40
2019-03-30T08:38:27.157Z,31.17
2019-03-30T08:40:55.803Z,34.38
2019-03-30T08:43:24.418Z,27.45
2019-03-30T08:45:53.104Z,66.87
2019-03-30T08:48:21.804Z,75.08
2019-03-30T08:50:50.482Z,35.08
2019-03-30T08:53:19.169Z,31.12
2019-03-30T08:55:47.940Z,32.30
2019-03-30T08:58:16.627Z,30.30
2019-03-30T09:00:45.334Z,33.60
2019-03-30T09:03:14.047Z,32.67
2019-03-30T09:05:42.767Z,33.75
2019-03-30T09:08:11.451Z,34.25
2019-03-30T09:10:40.134Z,29.05
2019-03-30T09:13:08.849Z,32.50
2019-03-30T09:15:37.583Z,28.87
2019-03-30T09:18:06.259Z,31.12
2019-03-30T09:20:34.949Z,29.80
2019-03-30T09:23:03.618Z,30.55
2019-03-30T09:25:32.322Z,30.82
2019-03-30T09:28:01.014Z,30.55
2019-03-30T09:30:29.742Z,31.82
2019-03-30T09:32:58.403Z,28.90
2019-03-30T09:35:27.038Z,30.97
2019-03-30T09:37:55.763Z,29.12
2019-03-30T09:40:24.467Z,29.80
2019-03-30T09:42:53.199Z,29.45
2019-03-30T09:45:21.881Z,27.22
2019-03-30T09:47:50.563Z,28.50
2019-03-30T09:50:19.288Z,29.02
2019-03-30T09:52:47.965Z,27.50
2019-03-30T09:55:16.706Z,28.10
2019-03-30T09:57:45.371Z,26.50
2019-03-30T10:00:14.076Z,26.35
2019-03-30T10:02:42.488Z,26.55
2019-03-30T10:05:11.170Z,27.42
2019-03-30T10:07:39.803Z,26.85
2019-03-30T10:10:08.214Z,28.17
2019-03-30T10:12:36.898Z,34.43
2019-03-30T10:15:06.132Z,29.67
2019-03-30T10:17:34.849Z,29.73
2019-03-30T10:20:05.380Z,30.68
2019-03-30T10:22:34.106Z,31.90
2019-03-30T10:25:02.488Z,29.45
2019-03-30T10:27:31.120Z,31.12
2019-03-30T10:29:59.536Z,31.73
2019-03-30T10:32:28.147Z,32.13
2019-03-30T10:34:56.625Z,31.85
2019-03-30T10:37:25.431Z,31.80
2019-03-30T10:42:21.810Z,28.65
2019-03-30T10:44:50.409Z,31.73
2019-03-30T10:47:19.036Z,30.88
2019-03-30T10:49:47.643Z,32.45
2019-03-30T10:52:16.033Z,31.52
2019-03-30T10:54:52.616Z,33.08
2019-03-30T10:57:14.981Z,31.03
2019-03-30T10:59:43.387Z,33.30
2019-03-30T11:02:11.985Z,31.45
2019-03-30T11:04:40.609Z,27.67
2019-03-30T11:07:09.296Z,30.55
2019-03-30T11:09:37.972Z,31.48
2019-03-30T11:12:06.720Z,32.98
2019-03-30T11:14:35.143Z,33.15
2019-03-30T11:17:03.757Z,35.03
2019-03-30T11:19:32.186Z,55.55
2019-03-30T11:22:03.172Z,38.90
2019-03-30T11:24:30.999Z,30.93
2019-03-30T11:26:59.405Z,37.28
2019-03-30T11:29:28.272Z,33.18
2019-03-30T11:31:56.976Z,31.73
2019-03-30T11:34:25.680Z,32.13
2019-03-30T11:36:54.363Z,35.77
2019-03-30T11:39:22.775Z,33.92
2019-03-30T11:41:51.406Z,30.80
2019-03-30T11:44:19.813Z,33.08
2019-03-30T11:46:48.458Z,29.40
2019-03-30T11:49:17.180Z,30.32
2019-03-30T11:51:45.563Z,24.87
2019-03-30T11:54:14.213Z,27.60
2019-03-30T11:56:42.533Z,24.95
2019-03-30T11:59:11.211Z,30.48
2019-03-30T12:01:39.627Z,25.82
2019-03-30T12:04:08.249Z,29.12
2019-03-30T12:09:07.435Z,30.92
2019-03-30T12:11:36.461Z,23.90
2019-03-30T12:14:05.147Z,25.93
2019-03-30T12:16:33.545Z,27.17
2019-03-30T12:19:01.981Z,23.52
2019-03-30T12:21:30.401Z,23.38
2019-03-30T12:23:58.813Z,23.22
2019-03-30T12:28:55.236Z,20.70
2019-03-30T12:33:51.596Z,22.90
2019-03-30T12:36:20.006Z,21.95
2019-03-30T12:38:48.440Z,24.98
2019-03-30T12:41:16.854Z,23.18
2019-03-30T12:43:45.471Z,22.55
2019-03-30T12:48:41.815Z,21.10
2019-03-30T12:51:10.513Z,22.42
2019-03-30T12:53:49.540Z,25.00
2019-03-30T12:56:09.553Z,21.00
2019-03-30T12:58:38.028Z,22.90
2019-03-30T13:01:06.648Z,23.73
2019-03-30T13:03:35.053Z,23.05
2019-03-30T13:06:03.767Z,23.32
2019-03-30T13:08:32.204Z,19.05
2019-03-30T13:11:00.596Z,21.75
2019-03-30T13:13:29.010Z,20.27
2019-03-30T13:15:57.426Z,20.80
2019-03-30T13:18:26.156Z,17.42
2019-03-30T13:20:54.552Z,18.20
2019-03-30T13:23:23.169Z,22.35
2019-03-30T13:26:02.995Z,18.62
2019-03-30T13:28:21.828Z,17.33
2019-03-30T13:30:50.180Z,19.15
2019-03-30T13:33:18.585Z,19.95
2019-03-30T13:35:47.192Z,17.98
2019-03-30T13:38:15.832Z,15.72
2019-03-30T13:40:44.209Z,16.97
2019-03-30T13:43:12.669Z,17.75
2019-03-30T13:45:41.031Z,16.20
2019-03-30T13:48:09.659Z,14.98
2019-03-30T13:50:38.044Z,16.20
2019-03-30T13:53:06.467Z,15.58
2019-03-30T13:58:02.858Z,12.98
2019-03-30T14:02:59.192Z,16.17
2019-03-30T14:07:55.619Z,15.03
2019-03-30T14:12:51.943Z,23.35
2019-03-30T14:17:48.265Z,16.37
2019-03-30T14:20:16.963Z,18.87
2019-03-30T14:22:45.662Z,14.93
2019-03-30T14:25:14.363Z,15.80
2019-03-30T14:27:42.987Z,12.10
2019-03-30T14:30:11.692Z,13.77
2019-03-30T14:32:40.364Z,10.77
2019-03-30T14:35:09.065Z,9.97
2019-03-30T14:37:37.745Z,11.77
2019-03-30T14:40:07.613Z,11.83
2019-03-30T14:42:36.286Z,10.63
2019-03-30T14:45:07.043Z,12.03
2019-03-30T14:47:35.714Z,10.97
2019-03-30T14:50:06.650Z,10.93
2019-03-30T14:52:35.705Z,10.30
2019-03-30T14:55:06.167Z,12.10
2019-03-30T14:57:34.795Z,10.20
2019-03-30T15:00:03.951Z,12.37
2019-03-30T15:02:32.649Z,12.17
2019-03-30T15:05:01.696Z,12.53
2019-03-30T15:07:30.359Z,12.90
2019-03-30T15:09:59.081Z,13.70
2019-03-30T15:12:27.751Z,16.67
2019-03-30T15:14:56.374Z,11.07
2019-03-30T15:17:24.980Z,11.00
2019-03-30T15:19:53.605Z,10.53
2019-03-30T15:22:22.212Z,13.30
2019-03-30T15:24:50.842Z,13.23
2019-03-30T15:27:19.463Z,11.83
2019-03-30T15:29:48.160Z,12.63
2019-03-30T15:32:16.792Z,12.27
2019-03-30T15:34:45.508Z,25.87
2019-03-30T15:37:14.207Z,24.77
2019-03-30T15:39:42.924Z,13.17
2019-03-30T15:42:11.606Z,13.10
2019-03-30T15:44:40.312Z,13.70
2019-03-30T15:47:08.926Z,12.57
2019-03-30T15:49:37.704Z,16.27
2019-03-30T15:52:13.852Z,11.70
2019-03-30T15:54:37.375Z,11.17
2019-03-30T15:57:14.074Z,13.77
2019-03-30T15:59:36.435Z,12.70
2019-03-30T16:04:32.847Z,11.40
2019-03-30T16:07:01.571Z,13.87
2019-03-30T16:09:30.263Z,13.40
2019-03-30T16:11:59.236Z,12.57
2019-03-30T16:14:27.931Z,11.67
2019-03-30T16:16:56.624Z,11.73
2019-03-30T16:21:52.961Z,10.90
2019-03-30T16:24:21.586Z,11.30
2019-03-30T16:26:50.282Z,11.37
2019-03-30T16:31:46.541Z,11.83
2019-03-30T16:36:42.872Z,11.43
2019-03-30T16:41:39.227Z,11.25
2019-03-30T16:46:35.651Z,14.28
2019-03-30T16:51:32.046Z,13.48
2019-03-30T16:56:28.479Z,12.50
2019-03-30T17:01:24.917Z,12.10
2019-03-30T17:06:21.358Z,14.40
2019-03-30T17:08:49.780Z,14.43
2019-03-30T17:11:18.187Z,12.30
2019-03-30T17:13:46.574Z,12.88
2019-03-30T17:16:15.233Z,15.60
2019-03-30T17:21:11.626Z,13.58
2019-03-30T17:23:40.051Z,14.50
2019-03-30T17:26:08.446Z,13.20
2019-03-30T17:28:36.858Z,14.68
2019-03-30T17:31:05.276Z,16.40
2019-03-30T17:33:33.977Z,14.70
2019-03-30T17:36:02.368Z,14.58
2019-03-30T17:38:30.789Z,21.87
2019-03-30T17:40:59.211Z,24.85
2019-03-30T17:43:27.855Z,25.57
2019-03-30T17:45:56.486Z,34.78
2019-03-30T17:48:24.899Z,47.62
2019-03-30T17:50:53.371Z,55.03
2019-03-30T17:53:22.033Z,55.40
2019-03-30T17:55:50.652Z,56.33
2019-03-30T17:58:19.368Z,56.20
2019-03-30T18:00:48.239Z,57.60
2019-03-30T18:05:44.667Z,60.70
2019-03-30T18:08:13.059Z,58.85
2019-03-30T18:10:41.770Z,60.38
2019-03-30T18:13:10.492Z,58.40
2019-03-30T18:15:39.094Z,61.58
2019-03-30T18:18:07.775Z,62.78
2019-03-30T18:20:36.470Z,62.88
2019-03-30T18:23:05.078Z,60.15
2019-03-30T18:25:33.790Z,63.50
2019-03-30T18:28:02.474Z,63.68
2019-03-30T18:30:35.945Z,72.20
2019-03-30T18:33:04.874Z,72.23
2019-03-30T18:35:33.724Z,74.00
2019-03-30T18:38:03.231Z,71.05
2019-03-30T18:40:32.872Z,71.27
2019-03-30T18:43:02.812Z,71.77
2019-03-30T18:45:31.824Z,68.30
2019-03-30T18:48:18.771Z,71.37
2019-03-30T18:50:47.711Z,71.40
2019-03-30T18:53:16.655Z,65.45
2019-03-30T18:58:13.077Z,73.80
2019-03-30T19:00:41.697Z,74.77
2019-03-30T19:03:10.397Z,74.87
2019-03-30T19:05:38.999Z,83.47
2019-03-30T19:08:07.696Z,78.40
2019-03-30T19:10:36.426Z,83.07
2019-03-30T19:13:04.838Z,82.27
2019-03-30T19:15:33.530Z,90.85
2019-03-30T19:18:02.239Z,88.55
2019-03-30T19:20:30.857Z,95.35
2019-03-30T19:22:59.557Z,95.50
2019-03-30T19:25:29.884Z,100.18
2019-03-30T19:27:58.614Z,101.73
2019-03-30T19:30:27.223Z,104.27
2019-03-30T19:32:55.944Z,103.38
2019-03-30T19:35:24.629Z,110.45
2019-03-30T19:37:53.248Z,115.92
2019-03-30T19:40:21.965Z,114.57
2019-03-30T19:42:50.580Z,116.45
2019-03-30T19:45:19.295Z,120.90
2019-03-30T19:47:48.027Z,121.33
2019-03-30T19:50:16.723Z,109.30
2019-03-30T19:52:45.422Z,118.53
2019-03-30T19:55:14.083Z,124.07
2019-03-30T19:57:42.779Z,120.13
2019-03-30T20:00:13.031Z,116.45
2019-03-30T20:02:42.050Z,116.17
2019-03-30T20:05:10.745Z,115.85
2019-03-30T20:07:39.452Z,110.60
2019-03-30T20:10:08.073Z,115.00
2019-03-30T20:12:37.538Z,104.50
2019-03-30T20:15:07.613Z,112.30
2019-03-30T20:17:36.610Z,108.97
2019-03-30T20:20:05.866Z,102.15
2019-03-30T20:22:34.816Z,108.80
2019-03-30T20:25:04.378Z,95.05
2019-03-30T20:27:33.287Z,95.25
2019-03-30T20:30:02.179Z,92.67
2019-03-30T20:32:30.574Z,96.22
2019-03-30T20:34:59.290Z,92.65
2019-03-30T20:37:27.970Z,96.25
2019-03-30T20:39:56.707Z,102.82
2019-03-30T20:42:25.383Z,96.42
2019-03-30T20:44:54.104Z,93.45
2019-03-30T20:47:22.795Z,97.95
2019-03-30T20:49:51.516Z,102.78
2019-03-30T20:52:20.211Z,99.60
2019-03-30T20:54:48.910Z,102.35
2019-03-30T20:57:17.536Z,100.22
2019-03-30T20:59:46.247Z,104.87
2019-03-30T21:02:14.935Z,104.83
2019-03-30T21:04:43.583Z,101.45
2019-03-30T21:07:12.276Z,116.82
2019-03-30T21:09:40.901Z,113.15
2019-03-30T21:12:09.538Z,98.85
2019-03-30T21:14:38.236Z,111.55
2019-03-30T21:17:06.858Z,110.42
2019-03-30T21:19:35.576Z,113.85
2019-03-30T21:22:04.272Z,110.78
2019-03-30T21:24:32.978Z,115.35
2019-03-30T21:27:01.672Z,108.00
2019-03-30T21:29:30.374Z,99.32
2019-03-30T21:31:59.068Z,117.70
2019-03-30T21:34:27.782Z,103.65
2019-03-30T21:36:56.402Z,103.75
2019-03-30T21:39:25.114Z,112.97
2019-03-30T21:41:53.742Z,104.45
2019-03-30T21:44:22.636Z,114.45
2019-03-30T21:46:51.138Z,109.63
2019-03-30T21:49:19.852Z,119.35
2019-03-30T21:51:48.475Z,116.77
2019-03-30T21:54:17.255Z,110.15
2019-03-30T21:56:45.952Z,113.80
2019-03-30T21:59:14.646Z,123.42
2019-03-30T22:01:43.344Z,119.08
2019-03-30T22:04:11.976Z,129.55
2019-03-30T22:06:40.664Z,120.47
2019-03-30T22:09:09.367Z,119.17
2019-03-30T22:11:38.060Z,113.75
2019-03-30T22:14:06.752Z,111.55
2019-03-30T22:16:35.438Z,138.40
2019-03-30T22:19:04.040Z,132.60
2019-03-30T22:21:32.773Z,124.87
2019-03-30T22:24:01.494Z,123.45
2019-03-30T22:26:30.203Z,121.67
2019-03-30T22:28:58.868Z,131.20
2019-03-30T22:31:27.555Z,136.50
2019-03-30T22:33:56.272Z,142.95
2019-03-30T22:36:24.873Z,129.93
2019-03-30T22:38:53.569Z,127.75
2019-03-30T22:41:22.262Z,133.03
2019-03-30T22:43:50.964Z,138.88
2019-03-30T22:46:19.647Z,144.65
2019-03-30T22:48:48.343Z,149.90
2019-03-30T22:51:16.971Z,144.35
2019-03-30T22:53:45.691Z,138.07
2019-03-30T22:56:14.384Z,136.45
2019-03-30T22:58:43.075Z,128.68
2019-03-30T23:01:13.456Z,127.50
2019-03-30T23:03:42.421Z,131.78
2019-03-30T23:06:11.129Z,128.30
2019-03-30T23:08:39.829Z,130.70
2019-03-30T23:11:08.521Z,137.28
2019-03-30T23:13:37.252Z,148.10
2019-03-30T23:16:05.948Z,140.43
2019-03-30T23:18:34.670Z,144.57
2019-03-30T23:21:03.355Z,120.47
2019-03-30T23:23:32.051Z,153.42
2019-03-30T23:26:00.734Z,128.57
2019-03-30T23:28:29.340Z,137.60
2019-03-30T23:30:58.317Z,133.63
2019-03-30T23:33:26.632Z,121.22
2019-03-30T23:35:55.279Z,106.55
2019-03-30T23:38:23.914Z,121.62
2019-03-30T23:40:52.515Z,107.15
2019-03-30T23:43:21.151Z,100.72
2019-03-30T23:45:49.822Z,99.10
2019-03-30T23:48:18.529Z,95.35
2019-03-30T23:50:47.133Z,94.28
2019-03-30T23:53:17.911Z,93.00
2019-03-30T23:55:46.630Z,98.67
2019-03-30T23:58:15.331Z,83.97
